GCTS Airport Information

Runway Information
Runway 08 Length 10499 ft width 148 ft
Elevation 187 ft Threshold 0 ft Heading 69
Runway 26 Length 10499 ft Width 148 ft
Elevation 209 ft Threshold 0 ft Heading 249
Airport Frequencies
Type APP Name APP Frequency 120.3 MHZ
Type ATIS Name ATIS Frequency 118.675 MHZ
Type GND Name GND Frequency 121.9 MHZ
Type TWR Name TWR Frequency 119 MHZ
Airport Navaids
Type NDB Name Tenerife Sur Frequency 317 KHZ
Type VOR-DME Name Tenerife Sur Frequency 116400 KHZ
Airport Weather Information & NOTAM
ADDS - METARS form results

(2324 UTC 27 February 2020)
Data provider http://aviationweather.gov/metar/data/
 
METAR text: GCTS 272300Z 07011KT 030V100 9999 BKN030 18/12 Q1022 NOSIG
Conditions at: GCTS (TENERIFE SUR/REI, ES) observed 2300 UTC 27 February 2020
Temperature: 18.0°C (64°F)
Dewpoint: 12.0°C (54°F) [RH = 68%]
Pressure (altimeter): 30.18 inches Hg (1022.0 mb)
Winds: from the ENE (70 degrees) at 13 MPH (11 knots; 5.7 m/s)
Visibility: 6 or more miles (10+ km)
Ceiling: 3000 feet AGL
Clouds: broken clouds at 3000 feet AGL
Weather: no significant weather observed at this time

METAR text: GCTS 272230Z 08011KT 9999 BKN030 19/12 Q1022 NOSIG
Conditions at: GCTS (TENERIFE SUR/REI, ES) observed 2230 UTC 27 February 2020
Temperature: 19.0°C (66°F)
Dewpoint: 12.0°C (54°F) [RH = 64%]
Pressure (altimeter): 30.18 inches Hg (1022.0 mb)
Winds: from the E (80 degrees) at 13 MPH (11 knots; 5.7 m/s)
Visibility: 6 or more miles (10+ km)
Ceiling: 3000 feet AGL
Clouds: broken clouds at 3000 feet AGL
Weather: no significant weather observed at this time

Forecast for: GCTS (TENERIFE SUR/REI, ES)
Text: TAF GCTS 272000Z 2721/2821 04006KT 9999 FEW025 TX23/2814Z TN16/2806Z
Forecast period: 2100 UTC 27 February 2020 to 2100 UTC 28 February 2020
Forecast type: FROM: standard forecast or significant change
Winds: from the NE (40 degrees) at 7 MPH (6 knots; 3.1 m/s)
Visibility: 6 or more miles 10+ km)
Ceiling: at least 12,000 feet AGL
Clouds: few clouds at 2500 feet AGL
Weather: no significant weather forecast for this period
Text: PROB30
Forecast period: 2100 to 2200 UTC 27 February 2020
Forecast type: TEMPORARY: The following changes expected for less than half the time period
Winds: from the ENE (60 degrees) at 18 MPH (16 knots; 8.2 m/s)
Visibility: missing
Ceiling: unknown
Clouds: missing
Weather: no significant weather forecast for this period